createdAt,value
2019-03-25T00:00:04.302Z,2.83
2019-03-25T00:02:32.822Z,2.43
2019-03-25T00:05:01.674Z,8.10
2019-03-25T00:07:29.593Z,14.90
2019-03-25T00:09:57.797Z,8.93
2019-03-25T00:12:26.286Z,6.00
2019-03-25T00:14:54.860Z,5.53
2019-03-25T00:17:23.225Z,4.00
2019-03-25T00:19:52.130Z,2.87
2019-03-25T00:22:20.410Z,2.43
2019-03-25T00:24:48.653Z,2.80
2019-03-25T00:27:17.185Z,3.00
2019-03-25T00:29:45.860Z,2.83
2019-03-25T00:32:14.511Z,2.77
2019-03-25T00:34:42.686Z,2.83
2019-03-25T00:37:10.981Z,2.47
2019-03-25T00:39:39.157Z,3.20
2019-03-25T00:42:07.441Z,2.90
2019-03-25T00:44:36.030Z,3.03
2019-03-25T00:47:04.271Z,3.23
2019-03-25T00:49:32.632Z,2.90
2019-03-25T00:52:00.553Z,3.43
2019-03-25T00:54:29.134Z,3.23
2019-03-25T00:56:57.322Z,3.20
2019-03-25T00:59:25.693Z,3.30
2019-03-25T01:01:53.966Z,3.30
2019-03-25T01:04:22.202Z,3.47
2019-03-25T01:06:50.144Z,3.10
2019-03-25T01:09:19.008Z,2.60
2019-03-25T01:11:49.254Z,3.03
2019-03-25T01:14:16.854Z,3.40
2019-03-25T01:17:20.629Z,3.37
2019-03-25T01:19:48.816Z,3.40
2019-03-25T01:22:17.180Z,3.10
2019-03-25T01:24:45.158Z,3.17
2019-03-25T01:27:14.103Z,2.70
2019-03-25T01:29:42.108Z,2.67
2019-03-25T01:32:10.557Z,3.10
2019-03-25T01:34:39.202Z,3.30
2019-03-25T01:37:07.117Z,3.60
2019-03-25T01:39:35.314Z,2.80
2019-03-25T01:42:03.241Z,3.87
2019-03-25T01:44:31.590Z,3.50
2019-03-25T01:46:59.849Z,3.70
2019-03-25T01:49:28.037Z,4.23
2019-03-25T01:51:56.329Z,4.00
2019-03-25T01:54:24.948Z,3.70
2019-03-25T01:56:52.841Z,3.80
2019-03-25T01:59:21.065Z,3.77
2019-03-25T02:01:49.093Z,4.00
2019-03-25T02:04:17.705Z,3.97
2019-03-25T02:06:45.898Z,3.80
2019-03-25T02:09:14.800Z,4.17
2019-03-25T02:11:43.282Z,3.87
2019-03-25T02:14:11.508Z,3.23
2019-03-25T02:16:39.442Z,3.57
2019-03-25T02:19:07.352Z,3.37
2019-03-25T02:21:35.945Z,3.77
2019-03-25T02:24:04.159Z,4.37
2019-03-25T02:26:32.801Z,4.57
2019-03-25T02:29:00.706Z,4.07
2019-03-25T02:31:28.611Z,3.73
2019-03-25T02:33:56.812Z,4.30
2019-03-25T02:36:24.724Z,4.17
2019-03-25T02:38:53.194Z,4.20
2019-03-25T02:41:21.503Z,4.07
2019-03-25T02:43:50.017Z,4.30
2019-03-25T02:46:17.948Z,4.50
2019-03-25T02:48:46.163Z,3.93
2019-03-25T02:51:14.425Z,4.50
2019-03-25T02:53:42.622Z,4.60
2019-03-25T02:56:10.536Z,4.27
2019-03-25T02:58:38.786Z,4.17
2019-03-25T03:01:07.124Z,4.00
2019-03-25T03:03:35.101Z,4.50
2019-03-25T03:06:03.346Z,3.80
2019-03-25T03:08:31.547Z,4.23
2019-03-25T03:10:59.753Z,4.00
2019-03-25T03:13:28.428Z,4.10
2019-03-25T03:15:56.942Z,4.60
2019-03-25T03:18:24.937Z,5.40
2019-03-25T03:20:53.273Z,4.73
2019-03-25T03:23:21.606Z,4.47
2019-03-25T03:25:57.132Z,4.43
2019-03-25T03:28:20.162Z,4.80
2019-03-25T03:30:48.399Z,4.73
2019-03-25T03:33:17.357Z,4.17
2019-03-25T03:35:46.628Z,4.50
2019-03-25T03:38:14.859Z,4.50
2019-03-25T03:40:42.789Z,4.10
2019-03-25T03:43:10.739Z,4.43
2019-03-25T03:45:39.531Z,4.40
2019-03-25T03:48:07.815Z,4.13
2019-03-25T03:50:36.094Z,4.77
2019-03-25T03:53:04.751Z,4.83
2019-03-25T03:55:34.645Z,4.70
2019-03-25T03:58:03.737Z,4.30
2019-03-25T04:00:35.942Z,4.97
2019-03-25T04:03:03.926Z,4.50
2019-03-25T04:05:31.911Z,4.80
2019-03-25T04:08:00.411Z,4.27
2019-03-25T04:10:28.948Z,5.23
2019-03-25T04:12:57.193Z,5.60
2019-03-25T04:15:26.136Z,4.30
2019-03-25T04:17:54.607Z,4.90
2019-03-25T04:20:22.856Z,5.03
2019-03-25T04:22:51.582Z,4.20
2019-03-25T04:25:19.890Z,5.03
2019-03-25T04:27:48.622Z,5.10
2019-03-25T04:30:17.105Z,5.30
2019-03-25T04:32:45.386Z,6.00
2019-03-25T04:35:13.641Z,5.33
2019-03-25T04:37:42.182Z,5.97
2019-03-25T04:40:10.129Z,4.70
2019-03-25T04:42:38.374Z,5.80
2019-03-25T04:45:06.313Z,4.90
2019-03-25T04:47:35.267Z,5.43
2019-03-25T04:50:03.212Z,5.60
2019-03-25T04:52:31.131Z,5.33
2019-03-25T04:54:59.352Z,5.63
2019-03-25T04:57:27.837Z,5.67
2019-03-25T04:59:56.405Z,5.50
2019-03-25T05:02:24.590Z,5.83
2019-03-25T05:04:53.175Z,5.80
2019-03-25T05:07:21.834Z,5.87
2019-03-25T05:09:50.346Z,6.13
2019-03-25T05:12:18.888Z,6.53
2019-03-25T05:14:46.800Z,5.90
2019-03-25T05:17:15.071Z,7.10
2019-03-25T05:19:43.855Z,6.17
2019-03-25T05:22:11.772Z,6.53
2019-03-25T05:24:40.061Z,7.33
2019-03-25T05:27:07.991Z,7.13
2019-03-25T05:29:36.257Z,6.10
2019-03-25T05:32:04.825Z,6.43
2019-03-25T05:34:33.421Z,5.10
2019-03-25T05:37:01.661Z,4.87
2019-03-25T05:39:29.916Z,4.90
2019-03-25T05:41:59.031Z,4.43
2019-03-25T05:44:26.956Z,4.70
2019-03-25T05:46:55.199Z,4.63
2019-03-25T05:49:23.209Z,4.20
2019-03-25T05:51:51.452Z,3.10
2019-03-25T05:54:19.764Z,3.50
2019-03-25T05:56:48.018Z,3.90
2019-03-25T05:59:15.936Z,4.30
2019-03-25T06:01:44.476Z,3.40
2019-03-25T06:04:12.441Z,3.60
2019-03-25T06:06:40.712Z,3.23
2019-03-25T06:09:09.029Z,3.73
2019-03-25T06:11:37.201Z,3.13
2019-03-25T06:14:05.692Z,3.87
2019-03-25T06:16:34.776Z,3.60
2019-03-25T06:19:02.960Z,3.30
2019-03-25T06:21:31.388Z,3.50
2019-03-25T06:23:59.578Z,3.50
2019-03-25T06:26:27.822Z,3.53
2019-03-25T06:28:55.840Z,3.50
2019-03-25T06:31:24.074Z,4.07
2019-03-25T06:33:52.605Z,3.40
2019-03-25T06:36:21.164Z,3.53
2019-03-25T06:38:49.478Z,4.03
2019-03-25T06:41:17.681Z,3.43
2019-03-25T06:43:45.975Z,3.37
2019-03-25T06:46:14.239Z,3.30
2019-03-25T06:48:42.198Z,3.37
2019-03-25T06:51:10.133Z,3.60
2019-03-25T06:53:38.577Z,3.37
2019-03-25T06:56:07.145Z,3.37
2019-03-25T06:58:35.411Z,3.13
2019-03-25T07:01:03.349Z,3.17
2019-03-25T07:03:31.956Z,2.83
2019-03-25T07:05:59.863Z,3.03
2019-03-25T07:08:28.629Z,2.93
2019-03-25T07:10:57.067Z,2.70
2019-03-25T07:13:26.002Z,3.47
2019-03-25T07:15:54.637Z,3.47
2019-03-25T07:18:23.136Z,3.40
2019-03-25T07:20:51.600Z,3.43
2019-03-25T07:23:20.128Z,3.27
2019-03-25T07:25:48.303Z,3.00
2019-03-25T07:28:17.297Z,3.50
2019-03-25T07:30:45.464Z,3.30
2019-03-25T07:33:13.392Z,3.27
2019-03-25T07:35:41.566Z,2.97
2019-03-25T07:38:10.144Z,3.57
2019-03-25T07:40:38.072Z,2.87
2019-03-25T07:43:06.093Z,3.53
2019-03-25T07:45:34.373Z,2.63
2019-03-25T07:48:04.198Z,3.10
2019-03-25T07:50:32.605Z,2.60
2019-03-25T07:53:00.890Z,2.90
2019-03-25T07:55:29.182Z,2.90
2019-03-25T07:57:57.168Z,2.97
2019-03-25T08:00:25.744Z,3.33
2019-03-25T08:02:54.009Z,2.67
2019-03-25T08:05:22.229Z,2.30
2019-03-25T08:07:50.748Z,3.27
2019-03-25T08:10:29.836Z,3.83
2019-03-25T08:12:58.089Z,3.80
2019-03-25T08:15:26.721Z,2.83
2019-03-25T08:17:54.909Z,3.00
2019-03-25T08:20:23.800Z,3.10
2019-03-25T08:22:51.977Z,2.70
2019-03-25T08:25:19.905Z,2.40
2019-03-25T08:27:59.166Z,3.50
2019-03-25T08:30:18.496Z,3.10
2019-03-25T08:32:47.229Z,2.97
2019-03-25T08:35:15.520Z,2.97
2019-03-25T08:37:44.188Z,2.80
2019-03-25T08:40:12.782Z,3.00
2019-03-25T08:42:41.682Z,3.20
2019-03-25T08:45:09.704Z,3.60
2019-03-25T08:47:37.630Z,2.80
2019-03-25T08:50:06.184Z,3.30
2019-03-25T08:52:34.383Z,2.90
2019-03-25T08:55:02.847Z,2.87
2019-03-25T08:57:31.156Z,2.90
2019-03-25T08:59:59.785Z,2.77
2019-03-25T09:02:27.706Z,2.50
2019-03-25T09:04:56.324Z,2.60
2019-03-25T09:07:24.706Z,2.80
2019-03-25T09:09:53.330Z,2.50
2019-03-25T09:12:21.864Z,3.13
2019-03-25T09:14:50.157Z,2.90
2019-03-25T09:17:18.969Z,2.50
2019-03-25T09:19:46.890Z,2.10
2019-03-25T09:22:15.373Z,2.03
2019-03-25T09:24:43.674Z,2.37
2019-03-25T09:27:12.313Z,2.20
2019-03-25T09:29:40.271Z,2.90
2019-03-25T09:32:08.504Z,1.90
2019-03-25T09:34:36.659Z,3.00
2019-03-25T09:37:04.566Z,2.70
2019-03-25T09:39:33.158Z,2.90
2019-03-25T09:42:01.091Z,2.53
2019-03-25T09:44:29.786Z,1.80
2019-03-25T09:46:57.688Z,2.10
2019-03-25T09:49:26.314Z,2.10
2019-03-25T09:51:54.262Z,1.83
2019-03-25T09:54:22.829Z,1.93
2019-03-25T09:56:50.779Z,1.50
2019-03-25T09:59:18.958Z,1.50
2019-03-25T10:01:46.888Z,1.37
2019-03-25T10:04:15.113Z,1.80
2019-03-25T10:06:43.558Z,1.40
2019-03-25T10:09:11.765Z,1.50
2019-03-25T10:11:39.929Z,1.53
2019-03-25T10:14:08.713Z,1.30
2019-03-25T10:16:36.628Z,1.40
2019-03-25T10:19:04.859Z,2.43
2019-03-25T10:21:33.110Z,2.20
2019-03-25T10:24:01.425Z,1.63
2019-03-25T10:26:29.333Z,1.97
2019-03-25T10:28:57.857Z,3.00
2019-03-25T10:31:26.100Z,2.80
2019-03-25T10:33:54.657Z,2.53
2019-03-25T10:36:23.097Z,3.10
2019-03-25T10:38:51.377Z,2.20
2019-03-25T10:41:19.646Z,2.03
2019-03-25T10:43:48.233Z,1.33
2019-03-25T10:46:16.505Z,1.67
2019-03-25T10:48:44.762Z,2.73
2019-03-25T10:51:13.374Z,2.03
2019-03-25T10:53:41.293Z,1.30
2019-03-25T10:56:09.196Z,1.63
2019-03-25T10:58:37.162Z,1.70
2019-03-25T11:01:05.577Z,1.80
2019-03-25T11:03:33.500Z,1.50
2019-03-25T11:06:01.797Z,1.50
2019-03-25T11:08:30.051Z,1.40
2019-03-25T11:10:58.274Z,1.20
2019-03-25T11:13:26.484Z,1.40
2019-03-25T11:15:54.733Z,1.60
2019-03-25T11:18:22.900Z,2.10
2019-03-25T11:20:51.359Z,2.37
2019-03-25T11:23:19.921Z,1.40
2019-03-25T11:25:47.835Z,1.47
2019-03-25T11:28:16.086Z,1.43
2019-03-25T11:30:49.340Z,1.70
2019-03-25T11:33:17.645Z,1.30
2019-03-25T11:35:46.132Z,1.40
2019-03-25T11:38:14.049Z,1.37
2019-03-25T11:40:42.998Z,1.30
2019-03-25T11:43:11.231Z,1.47
2019-03-25T11:45:39.847Z,1.20
2019-03-25T11:48:08.164Z,1.50
2019-03-25T11:50:36.350Z,1.47
2019-03-25T11:53:04.522Z,1.57
2019-03-25T11:55:32.757Z,1.77
2019-03-25T11:58:01.426Z,1.80
2019-03-25T12:00:29.333Z,1.50
2019-03-25T12:02:57.258Z,1.57
2019-03-25T12:05:25.820Z,1.57
2019-03-25T12:07:53.746Z,1.60
2019-03-25T12:10:22.527Z,1.90
2019-03-25T12:12:50.994Z,2.20
2019-03-25T12:15:19.133Z,1.80
2019-03-25T12:17:47.353Z,1.50
2019-03-25T12:20:15.572Z,2.07
2019-03-25T12:22:43.851Z,1.20
2019-03-25T12:25:11.773Z,1.50
2019-03-25T12:27:40.663Z,1.10
2019-03-25T12:30:09.174Z,0.97
2019-03-25T12:32:37.693Z,1.00
2019-03-25T12:35:05.834Z,1.20
2019-03-25T12:37:34.149Z,1.60
2019-03-25T12:40:02.578Z,1.30
2019-03-25T12:42:30.848Z,1.47
2019-03-25T12:44:59.194Z,1.73
2019-03-25T12:47:27.687Z,1.97
2019-03-25T12:49:56.545Z,1.77
2019-03-25T12:52:24.519Z,1.87
2019-03-25T12:54:53.436Z,2.00
2019-03-25T12:57:21.741Z,1.80
2019-03-25T12:59:50.026Z,1.77
2019-03-25T13:02:18.482Z,1.90
2019-03-25T13:04:47.054Z,1.30
2019-03-25T13:07:15.285Z,1.70
2019-03-25T13:09:43.937Z,1.40
2019-03-25T13:12:12.394Z,1.13
2019-03-25T13:14:40.313Z,1.30
2019-03-25T13:17:08.593Z,1.33
2019-03-25T13:19:37.036Z,1.70
2019-03-25T13:22:05.288Z,1.50
2019-03-25T13:24:33.529Z,1.50
2019-03-25T13:27:01.441Z,1.07
2019-03-25T13:29:30.085Z,0.90
2019-03-25T13:31:58.310Z,1.17
2019-03-25T13:34:26.891Z,1.00
2019-03-25T13:36:55.169Z,1.07
2019-03-25T13:39:23.342Z,1.07
2019-03-25T13:41:52.328Z,1.00
2019-03-25T13:44:20.656Z,1.40
2019-03-25T13:46:49.294Z,1.80
2019-03-25T13:49:17.593Z,1.40
2019-03-25T13:51:45.603Z,1.43
2019-03-25T13:54:13.869Z,1.50
2019-03-25T13:56:42.325Z,1.40
2019-03-25T13:59:10.530Z,1.40
2019-03-25T14:01:39.390Z,1.60
2019-03-25T14:04:09.789Z,1.50
2019-03-25T14:06:38.074Z,1.30
2019-03-25T14:09:06.750Z,2.10
2019-03-25T14:11:35.353Z,1.47
2019-03-25T14:14:03.573Z,1.30
2019-03-25T14:16:31.507Z,1.60
2019-03-25T14:19:00.041Z,2.03
2019-03-25T14:37:31.994Z,1.60
2019-03-25T14:40:00.540Z,1.40
2019-03-25T14:42:28.816Z,1.53
2019-03-25T14:44:57.406Z,2.00
2019-03-25T14:47:25.669Z,1.60
2019-03-25T14:49:54.025Z,1.47
2019-03-25T14:52:21.969Z,1.43
2019-03-25T14:54:49.901Z,1.23
2019-03-25T14:57:18.497Z,1.60
2019-03-25T14:59:47.059Z,1.60
2019-03-25T15:02:15.348Z,2.20
2019-03-25T15:04:43.554Z,1.93
2019-03-25T15:07:12.149Z,2.20
2019-03-25T15:09:40.375Z,1.77
2019-03-25T15:12:08.619Z,2.10
2019-03-25T15:14:36.936Z,1.90
2019-03-25T15:17:05.562Z,3.23
2019-03-25T15:19:34.220Z,2.00
2019-03-25T15:22:02.414Z,1.60
2019-03-25T15:24:30.593Z,1.93
2019-03-25T15:26:59.225Z,1.83
2019-03-25T15:29:27.129Z,2.00
2019-03-25T15:31:55.798Z,2.57
2019-03-25T15:34:23.965Z,2.10
2019-03-25T15:36:52.435Z,1.97
2019-03-25T15:39:20.978Z,1.90
2019-03-25T15:41:49.263Z,1.83
2019-03-25T15:44:17.229Z,1.80
2019-03-25T15:46:55.362Z,1.80
2019-03-25T15:49:16.476Z,2.50
2019-03-25T15:51:44.663Z,2.23
2019-03-25T15:54:12.577Z,1.93
2019-03-25T15:56:41.074Z,2.03
2019-03-25T15:59:09.382Z,2.30
2019-03-25T16:01:37.555Z,2.27
2019-03-25T16:04:05.468Z,1.53
2019-03-25T16:06:33.897Z,2.10
2019-03-25T16:09:02.626Z,1.67
2019-03-25T16:11:30.573Z,2.30
2019-03-25T16:13:58.763Z,2.30
2019-03-25T16:16:27.513Z,2.83
2019-03-25T16:18:55.729Z,2.20
2019-03-25T16:21:23.736Z,2.57
2019-03-25T16:23:51.772Z,2.37
2019-03-25T16:26:20.030Z,2.63
2019-03-25T16:28:48.765Z,2.60
2019-03-25T16:31:17.085Z,3.03
2019-03-25T16:33:45.007Z,2.73
2019-03-25T16:36:13.524Z,2.90
2019-03-25T16:38:42.104Z,2.90
2019-03-25T16:41:10.665Z,3.20
2019-03-25T16:43:38.592Z,2.90
2019-03-25T16:46:06.510Z,2.70
2019-03-25T16:48:34.991Z,3.57
2019-03-25T16:51:03.429Z,4.00
2019-03-25T16:53:31.846Z,3.40
2019-03-25T16:55:59.771Z,3.23
2019-03-25T16:58:28.275Z,3.40
2019-03-25T17:00:56.898Z,3.43
2019-03-25T17:03:25.598Z,3.13
2019-03-25T17:05:54.478Z,3.17
2019-03-25T17:08:23.015Z,2.90
2019-03-25T17:10:51.377Z,3.23
2019-03-25T17:13:19.609Z,2.90
2019-03-25T17:15:47.805Z,2.67
2019-03-25T17:18:16.385Z,2.63
2019-03-25T17:20:44.901Z,3.00
2019-03-25T17:23:13.101Z,2.90
2019-03-25T17:25:41.300Z,3.10
2019-03-25T17:28:09.233Z,3.60
2019-03-25T17:30:37.146Z,3.90
2019-03-25T17:33:06.817Z,3.43
2019-03-25T17:35:35.533Z,3.70
2019-03-25T17:38:03.827Z,3.33
2019-03-25T17:40:31.805Z,3.47
2019-03-25T17:43:00.072Z,3.77
2019-03-25T17:45:28.590Z,3.30
2019-03-25T17:47:56.997Z,3.37
2019-03-25T17:50:25.146Z,3.10
2019-03-25T17:52:53.070Z,3.20
2019-03-25T17:55:23.059Z,2.97
2019-03-25T17:57:51.334Z,2.50
2019-03-25T18:00:26.212Z,2.83
2019-03-25T18:02:54.473Z,2.37
2019-03-25T18:05:22.706Z,2.23
2019-03-25T18:07:51.607Z,2.27
2019-03-25T18:10:20.216Z,2.70
2019-03-25T18:12:48.432Z,2.67
2019-03-25T18:15:16.626Z,2.00
2019-03-25T18:17:45.139Z,2.50
2019-03-25T18:20:18.634Z,1.87
2019-03-25T18:22:42.950Z,1.50
2019-03-25T18:25:11.162Z,1.97
2019-03-25T18:27:39.325Z,1.50
2019-03-25T18:30:08.021Z,1.70
2019-03-25T18:32:35.933Z,1.47
2019-03-25T18:35:03.882Z,2.33
2019-03-25T18:37:31.820Z,1.60
2019-03-25T18:39:59.984Z,1.57
2019-03-25T18:42:28.831Z,1.50
2019-03-25T18:44:57.101Z,1.83
2019-03-25T18:47:25.584Z,2.23
2019-03-25T18:49:53.933Z,2.10
2019-03-25T18:52:22.446Z,1.77
2019-03-25T18:54:50.370Z,1.67
2019-03-25T18:57:18.876Z,1.73
2019-03-25T18:59:47.379Z,1.50
2019-03-25T19:02:15.608Z,1.70
2019-03-25T19:04:43.565Z,1.70
2019-03-25T19:07:12.109Z,1.60
2019-03-25T19:09:40.989Z,2.27
2019-03-25T19:12:08.959Z,2.03
2019-03-25T19:14:36.885Z,1.90
2019-03-25T19:17:05.481Z,2.47
2019-03-25T19:19:33.958Z,1.90
2019-03-25T19:22:02.132Z,2.10
2019-03-25T19:24:30.390Z,2.10
2019-03-25T19:26:58.668Z,2.23
2019-03-25T19:29:26.660Z,2.60
2019-03-25T19:32:05.860Z,2.47
2019-03-25T19:34:24.333Z,2.97
2019-03-25T19:36:52.502Z,2.70
2019-03-25T19:39:20.778Z,3.00
2019-03-25T19:41:49.542Z,2.67
2019-03-25T19:44:18.040Z,3.00
2019-03-25T19:46:47.205Z,3.07
2019-03-25T19:49:15.402Z,2.97
2019-03-25T19:51:43.353Z,3.10
2019-03-25T19:54:11.446Z,3.20
2019-03-25T19:56:39.630Z,2.70
2019-03-25T19:59:08.162Z,3.03
2019-03-25T20:01:36.485Z,3.17
2019-03-25T20:04:04.808Z,3.07
2019-03-25T20:06:33.151Z,3.27
2019-03-25T20:09:01.780Z,3.20
2019-03-25T20:11:29.707Z,3.23
2019-03-25T20:13:58.428Z,3.50
2019-03-25T20:16:26.636Z,3.70
2019-03-25T20:18:55.096Z,3.47
2019-03-25T20:21:23.078Z,4.37
2019-03-25T20:23:51.409Z,5.60
2019-03-25T20:26:19.387Z,8.33
2019-03-25T20:28:47.394Z,6.80
2019-03-25T20:31:15.574Z,4.40
2019-03-25T20:33:43.849Z,4.07
2019-03-25T20:36:12.364Z,4.77
2019-03-25T20:38:40.533Z,3.60
2019-03-25T20:41:08.973Z,2.37
2019-03-25T20:43:37.306Z,2.87
2019-03-25T20:46:05.859Z,2.80
2019-03-25T20:48:34.103Z,2.47
2019-03-25T20:51:02.074Z,2.20
2019-03-25T20:53:30.411Z,2.47
2019-03-25T20:55:58.419Z,2.83
2019-03-25T20:58:26.456Z,2.10
2019-03-25T21:00:55.575Z,2.70
2019-03-25T21:03:24.305Z,2.70
2019-03-25T21:05:52.464Z,2.40
2019-03-25T21:08:21.201Z,2.47
2019-03-25T21:10:49.178Z,2.50
2019-03-25T21:13:17.688Z,2.03
2019-03-25T21:15:46.554Z,2.03
2019-03-25T21:18:14.845Z,1.83
2019-03-25T21:20:42.801Z,1.90
2019-03-25T21:23:12.930Z,2.47
2019-03-25T21:25:41.262Z,2.60
2019-03-25T21:28:09.794Z,2.40
2019-03-25T21:30:47.465Z,2.27
2019-03-25T21:33:07.635Z,1.97
2019-03-25T21:35:36.296Z,2.87
2019-03-25T21:38:04.625Z,2.67
2019-03-25T21:40:33.068Z,2.20
2019-03-25T21:43:01.387Z,2.37
2019-03-25T21:45:30.078Z,2.13
2019-03-25T21:47:58.357Z,2.07
2019-03-25T21:50:26.377Z,2.27
2019-03-25T21:52:55.041Z,3.17
2019-03-25T21:55:23.114Z,2.93
2019-03-25T21:57:51.121Z,2.43
2019-03-25T22:00:19.297Z,2.30
2019-03-25T22:02:47.802Z,2.67
2019-03-25T22:05:16.297Z,2.43
2019-03-25T22:07:44.222Z,2.63
2019-03-25T22:10:12.856Z,2.50
2019-03-25T22:12:41.366Z,2.37
2019-03-25T22:15:10.323Z,2.20
2019-03-25T22:17:38.913Z,2.20
2019-03-25T22:20:07.356Z,2.03
2019-03-25T22:22:35.283Z,2.50
2019-03-25T22:25:03.857Z,2.07
2019-03-25T22:27:32.079Z,2.53
2019-03-25T22:30:00.346Z,2.57
2019-03-25T22:32:28.949Z,2.30
2019-03-25T22:34:56.859Z,2.47
2019-03-25T22:37:25.421Z,2.43
2019-03-25T22:39:54.211Z,2.43
2019-03-25T22:42:22.411Z,2.40
2019-03-25T22:44:50.656Z,2.93
2019-03-25T22:47:18.835Z,2.70
2019-03-25T22:49:47.093Z,2.70
2019-03-25T22:52:15.297Z,2.03
2019-03-25T22:54:43.593Z,2.50
2019-03-25T22:57:12.469Z,2.17
2019-03-25T22:59:40.657Z,2.77
2019-03-25T23:02:08.744Z,2.80
2019-03-25T23:04:36.686Z,3.10
2019-03-25T23:07:04.910Z,3.23
2019-03-25T23:09:32.849Z,2.60
2019-03-25T23:12:01.348Z,2.80
2019-03-25T23:14:29.638Z,2.57
2019-03-25T23:16:57.813Z,2.93
2019-03-25T23:19:25.741Z,3.00
2019-03-25T23:21:53.941Z,2.70
2019-03-25T23:24:22.233Z,3.17
2019-03-25T23:26:50.928Z,3.00
2019-03-25T23:29:19.137Z,2.67
2019-03-25T23:31:47.467Z,3.63
2019-03-25T23:34:16.153Z,2.93
2019-03-25T23:36:44.729Z,2.80
2019-03-25T23:39:12.669Z,3.67
2019-03-25T23:41:40.939Z,3.60
2019-03-25T23:44:09.108Z,3.30
2019-03-25T23:46:37.337Z,3.30
2019-03-25T23:49:05.259Z,3.27
2019-03-25T23:51:33.584Z,3.33
2019-03-25T23:54:12.049Z,3.57
2019-03-25T23:56:40.910Z,3.50
2019-03-25T23:59:09.241Z,3.83
